sensor_id;sensor_type;location;lat;lon;timestamp;P1;durP1;ratioP1;P2;durP2;ratioP2
65599;SDS011;52272;-29.642;-50.764;2022-09-28T00:01:48;8.77;;;4.65;;
65599;SDS011;52272;-29.642;-50.764;2022-09-28T00:04:18;7.55;;;4.07;;
65599;SDS011;52272;-29.642;-50.764;2022-09-28T00:06:49;8.40;;;4.05;;
65599;SDS011;52272;-29.642;-50.764;2022-09-28T00:09:19;8.98;;;4.30;;
65599;SDS011;52272;-29.642;-50.764;2022-09-28T00:11:50;9.68;;;4.13;;
65599;SDS011;52272;-29.642;-50.764;2022-09-28T00:14:24;11.25;;;4.38;;
65599;SDS011;52272;-29.642;-50.764;2022-09-28T00:16:55;9.40;;;3.88;;
65599;SDS011;52272;-29.642;-50.764;2022-09-28T00:19:26;11.50;;;3.97;;
65599;SDS011;52272;-29.642;-50.764;2022-09-28T00:24:26;5.55;;;3.33;;
65599;SDS011;52272;-29.642;-50.764;2022-09-28T00:26:57;14.10;;;4.20;;
65599;SDS011;52272;-29.642;-50.764;2022-09-28T00:29:33;9.75;;;3.53;;
65599;SDS011;52272;-29.642;-50.764;2022-09-28T00:32:08;9.48;;;3.58;;
65599;SDS011;52272;-29.642;-50.764;2022-09-28T00:34:41;10.00;;;3.50;;
65599;SDS011;52272;-29.642;-50.764;2022-09-28T00:37:14;9.02;;;2.88;;
65599;SDS011;52272;-29.642;-50.764;2022-09-28T00:39:45;11.90;;;3.10;;
65599;SDS011;52272;-29.642;-50.764;2022-09-28T00:42:18;15.05;;;3.42;;
65599;SDS011;52272;-29.642;-50.764;2022-09-28T00:44:53;15.52;;;3.10;;
65599;SDS011;52272;-29.642;-50.764;2022-09-28T00:50:02;10.15;;;3.13;;
65599;SDS011;52272;-29.642;-50.764;2022-09-28T00:55:41;12.90;;;3.53;;
65599;SDS011;52272;-29.642;-50.764;2022-09-28T00:58:16;13.98;;;3.53;;
65599;SDS011;52272;-29.642;-50.764;2022-09-28T01:00:50;11.02;;;3.67;;
65599;SDS011;52272;-29.642;-50.764;2022-09-28T01:03:25;11.05;;;3.60;;
65599;SDS011;52272;-29.642;-50.764;2022-09-28T01:05:58;11.70;;;3.78;;
65599;SDS011;52272;-29.642;-50.764;2022-09-28T01:08:31;14.00;;;3.58;;
65599;SDS011;52272;-29.642;-50.764;2022-09-28T01:11:03;13.23;;;3.83;;
65599;SDS011;52272;-29.642;-50.764;2022-09-28T01:22:21;9.25;;;3.10;;
65599;SDS011;52272;-29.642;-50.764;2022-09-28T01:25:33;11.70;;;3.20;;
65599;SDS011;52272;-29.642;-50.764;2022-09-28T01:28:29;12.35;;;3.72;;
65599;SDS011;52272;-29.642;-50.764;2022-09-28T01:31:22;11.27;;;3.80;;
65599;SDS011;52272;-29.642;-50.764;2022-09-28T01:34:08;11.18;;;3.75;;
65599;SDS011;52272;-29.642;-50.764;2022-09-28T01:36:48;14.60;;;4.00;;
65599;SDS011;52272;-29.642;-50.764;2022-09-28T01:39:25;13.02;;;4.28;;
65599;SDS011;52272;-29.642;-50.764;2022-09-28T01:42:04;12.68;;;3.90;;
65599;SDS011;52272;-29.642;-50.764;2022-09-28T01:44:44;12.68;;;4.00;;
65599;SDS011;52272;-29.642;-50.764;2022-09-28T01:47:20;11.30;;;3.50;;
65599;SDS011;52272;-29.642;-50.764;2022-09-28T01:50:14;9.70;;;3.53;;
65599;SDS011;52272;-29.642;-50.764;2022-09-28T01:52:48;10.85;;;3.75;;
65599;SDS011;52272;-29.642;-50.764;2022-09-28T01:55:36;13.13;;;3.40;;
65599;SDS011;52272;-29.642;-50.764;2022-09-28T02:00:51;12.98;;;3.97;;
65599;SDS011;52272;-29.642;-50.764;2022-09-28T02:03:34;20.83;;;3.33;;
65599;SDS011;52272;-29.642;-50.764;2022-09-28T02:06:51;8.77;;;3.30;;
65599;SDS011;52272;-29.642;-50.764;2022-09-28T02:09:27;9.48;;;3.38;;
65599;SDS011;52272;-29.642;-50.764;2022-09-28T02:12:07;9.65;;;3.22;;
65599;SDS011;52272;-29.642;-50.764;2022-09-28T02:14:42;11.65;;;4.07;;
65599;SDS011;52272;-29.642;-50.764;2022-09-28T02:17:15;10.02;;;3.42;;
65599;SDS011;52272;-29.642;-50.764;2022-09-28T02:19:46;9.43;;;3.53;;
65599;SDS011;52272;-29.642;-50.764;2022-09-28T02:22:25;12.40;;;3.65;;
65599;SDS011;52272;-29.642;-50.764;2022-09-28T02:25:01;12.57;;;4.00;;
65599;SDS011;52272;-29.642;-50.764;2022-09-28T02:27:46;10.00;;;3.40;;
65599;SDS011;52272;-29.642;-50.764;2022-09-28T02:30:28;9.02;;;3.22;;
65599;SDS011;52272;-29.642;-50.764;2022-09-28T02:33:02;12.10;;;3.47;;
65599;SDS011;52272;-29.642;-50.764;2022-09-28T02:35:40;8.80;;;3.30;;
65599;SDS011;52272;-29.642;-50.764;2022-09-28T02:38:13;6.13;;;2.90;;
65599;SDS011;52272;-29.642;-50.764;2022-09-28T02:40:50;8.65;;;3.08;;
65599;SDS011;52272;-29.642;-50.764;2022-09-28T02:58:01;8.40;;;2.90;;
65599;SDS011;52272;-29.642;-50.764;2022-09-28T03:00:34;7.28;;;3.13;;
65599;SDS011;52272;-29.642;-50.764;2022-09-28T03:03:17;9.88;;;3.22;;
65599;SDS011;52272;-29.642;-50.764;2022-09-28T03:05:56;9.10;;;2.92;;
65599;SDS011;52272;-29.642;-50.764;2022-09-28T03:08:44;8.70;;;2.90;;
65599;SDS011;52272;-29.642;-50.764;2022-09-28T03:11:42;9.50;;;3.40;;
65599;SDS011;52272;-29.642;-50.764;2022-09-28T03:14:16;10.77;;;3.47;;
65599;SDS011;52272;-29.642;-50.764;2022-09-28T03:16:54;7.55;;;3.25;;
65599;SDS011;52272;-29.642;-50.764;2022-09-28T03:19:27;7.47;;;3.00;;
65599;SDS011;52272;-29.642;-50.764;2022-09-28T03:22:01;8.07;;;3.55;;
65599;SDS011;52272;-29.642;-50.764;2022-09-28T03:24:32;10.00;;;3.28;;
65599;SDS011;52272;-29.642;-50.764;2022-09-28T03:27:02;7.22;;;3.05;;
65599;SDS011;52272;-29.642;-50.764;2022-09-28T03:29:33;7.57;;;2.78;;
65599;SDS011;52272;-29.642;-50.764;2022-09-28T03:32:05;8.43;;;3.05;;
65599;SDS011;52272;-29.642;-50.764;2022-09-28T03:34:36;7.20;;;3.10;;
65599;SDS011;52272;-29.642;-50.764;2022-09-28T03:37:06;7.13;;;2.50;;
65599;SDS011;52272;-29.642;-50.764;2022-09-28T03:39:37;4.50;;;2.58;;
65599;SDS011;52272;-29.642;-50.764;2022-09-28T03:42:07;9.00;;;2.97;;
65599;SDS011;52272;-29.642;-50.764;2022-09-28T03:44:42;5.85;;;2.65;;
65599;SDS011;52272;-29.642;-50.764;2022-09-28T03:47:14;4.07;;;2.40;;
65599;SDS011;52272;-29.642;-50.764;2022-09-28T03:49:46;6.95;;;2.78;;
65599;SDS011;52272;-29.642;-50.764;2022-09-28T03:52:16;9.00;;;2.80;;
65599;SDS011;52272;-29.642;-50.764;2022-09-28T03:54:47;6.32;;;3.17;;
65599;SDS011;52272;-29.642;-50.764;2022-09-28T03:57:17;6.07;;;2.92;;
65599;SDS011;52272;-29.642;-50.764;2022-09-28T03:59:48;8.13;;;3.00;;
65599;SDS011;52272;-29.642;-50.764;2022-09-28T04:02:18;6.35;;;2.67;;
65599;SDS011;52272;-29.642;-50.764;2022-09-28T04:04:49;5.32;;;2.85;;
65599;SDS011;52272;-29.642;-50.764;2022-09-28T04:07:19;9.68;;;2.85;;
65599;SDS011;52272;-29.642;-50.764;2022-09-28T04:09:50;7.10;;;2.83;;
65599;SDS011;52272;-29.642;-50.764;2022-09-28T04:12:21;4.78;;;2.88;;
65599;SDS011;52272;-29.642;-50.764;2022-09-28T04:14:51;3.90;;;2.63;;
65599;SDS011;52272;-29.642;-50.764;2022-09-28T04:17:22;7.57;;;2.60;;
65599;SDS011;52272;-29.642;-50.764;2022-09-28T04:19:54;7.43;;;3.03;;
65599;SDS011;52272;-29.642;-50.764;2022-09-28T04:22:39;5.43;;;2.42;;
65599;SDS011;52272;-29.642;-50.764;2022-09-28T04:25:10;3.78;;;2.10;;
65599;SDS011;52272;-29.642;-50.764;2022-09-28T04:27:40;7.72;;;2.60;;
65599;SDS011;52272;-29.642;-50.764;2022-09-28T04:30:36;5.85;;;3.00;;
65599;SDS011;52272;-29.642;-50.764;2022-09-28T04:33:08;6.55;;;2.75;;
65599;SDS011;52272;-29.642;-50.764;2022-09-28T04:35:38;7.70;;;2.60;;
65599;SDS011;52272;-29.642;-50.764;2022-09-28T04:38:09;9.18;;;3.03;;
65599;SDS011;52272;-29.642;-50.764;2022-09-28T04:40:40;9.00;;;2.65;;
65599;SDS011;52272;-29.642;-50.764;2022-09-28T04:43:10;8.07;;;3.38;;
65599;SDS011;52272;-29.642;-50.764;2022-09-28T04:45:41;5.55;;;2.72;;
65599;SDS011;52272;-29.642;-50.764;2022-09-28T04:48:11;8.80;;;3.00;;
65599;SDS011;52272;-29.642;-50.764;2022-09-28T04:51:04;6.15;;;3.35;;
65599;SDS011;52272;-29.642;-50.764;2022-09-28T04:53:36;6.38;;;3.03;;
65599;SDS011;52272;-29.642;-50.764;2022-09-28T04:56:12;9.35;;;3.33;;
65599;SDS011;52272;-29.642;-50.764;2022-09-28T04:58:44;9.27;;;3.40;;
65599;SDS011;52272;-29.642;-50.764;2022-09-28T05:01:20;11.82;;;3.03;;
65599;SDS011;52272;-29.642;-50.764;2022-09-28T05:04:10;5.22;;;2.90;;
65599;SDS011;52272;-29.642;-50.764;2022-09-28T05:06:59;8.75;;;3.50;;
65599;SDS011;52272;-29.642;-50.764;2022-09-28T05:09:30;7.45;;;3.10;;
65599;SDS011;52272;-29.642;-50.764;2022-09-28T05:12:05;11.48;;;3.92;;
65599;SDS011;52272;-29.642;-50.764;2022-09-28T05:14:37;6.80;;;3.75;;
65599;SDS011;52272;-29.642;-50.764;2022-09-28T05:17:08;8.45;;;3.17;;
65599;SDS011;52272;-29.642;-50.764;2022-09-28T05:19:55;7.00;;;2.72;;
65599;SDS011;52272;-29.642;-50.764;2022-09-28T05:24:55;5.63;;;2.80;;
65599;SDS011;52272;-29.642;-50.764;2022-09-28T05:27:31;4.13;;;2.88;;
65599;SDS011;52272;-29.642;-50.764;2022-09-28T05:30:07;6.50;;;2.53;;
65599;SDS011;52272;-29.642;-50.764;2022-09-28T05:32:55;8.13;;;2.88;;
65599;SDS011;52272;-29.642;-50.764;2022-09-28T05:35:34;5.72;;;2.95;;
65599;SDS011;52272;-29.642;-50.764;2022-09-28T05:40:34;4.10;;;2.35;;
65599;SDS011;52272;-29.642;-50.764;2022-09-28T05:43:04;4.22;;;2.20;;
65599;SDS011;52272;-29.642;-50.764;2022-09-28T05:45:35;4.57;;;2.70;;
65599;SDS011;52272;-29.642;-50.764;2022-09-28T05:48:05;3.05;;;2.17;;
65599;SDS011;52272;-29.642;-50.764;2022-09-28T05:50:35;8.93;;;3.40;;
65599;SDS011;52272;-29.642;-50.764;2022-09-28T05:53:07;8.95;;;3.10;;
65599;SDS011;52272;-29.642;-50.764;2022-09-28T05:55:38;8.10;;;2.97;;
65599;SDS011;52272;-29.642;-50.764;2022-09-28T05:58:09;5.25;;;2.60;;
65599;SDS011;52272;-29.642;-50.764;2022-09-28T06:00:40;7.82;;;2.90;;
65599;SDS011;52272;-29.642;-50.764;2022-09-28T06:03:11;5.57;;;3.30;;
65599;SDS011;52272;-29.642;-50.764;2022-09-28T06:05:45;5.50;;;2.60;;
65599;SDS011;52272;-29.642;-50.764;2022-09-28T06:08:15;7.95;;;3.10;;
65599;SDS011;52272;-29.642;-50.764;2022-09-28T06:10:57;7.53;;;3.45;;
65599;SDS011;52272;-29.642;-50.764;2022-09-28T06:13:28;7.20;;;2.60;;
65599;SDS011;52272;-29.642;-50.764;2022-09-28T06:16:03;4.03;;;2.67;;
65599;SDS011;52272;-29.642;-50.764;2022-09-28T06:21:31;7.40;;;3.03;;
65599;SDS011;52272;-29.642;-50.764;2022-09-28T06:24:02;8.35;;;3.35;;
65599;SDS011;52272;-29.642;-50.764;2022-09-28T06:26:35;7.25;;;3.60;;
65599;SDS011;52272;-29.642;-50.764;2022-09-28T06:29:06;5.32;;;2.95;;
65599;SDS011;52272;-29.642;-50.764;2022-09-28T06:31:36;5.85;;;3.00;;
65599;SDS011;52272;-29.642;-50.764;2022-09-28T06:34:08;4.45;;;2.47;;
65599;SDS011;52272;-29.642;-50.764;2022-09-28T06:36:40;8.75;;;3.15;;
65599;SDS011;52272;-29.642;-50.764;2022-09-28T06:39:11;5.95;;;2.75;;
65599;SDS011;52272;-29.642;-50.764;2022-09-28T06:41:41;8.57;;;3.28;;
65599;SDS011;52272;-29.642;-50.764;2022-09-28T06:44:17;4.57;;;2.58;;
65599;SDS011;52272;-29.642;-50.764;2022-09-28T06:47:21;11.40;;;3.30;;
65599;SDS011;52272;-29.642;-50.764;2022-09-28T06:50:04;9.35;;;3.00;;
65599;SDS011;52272;-29.642;-50.764;2022-09-28T06:53:00;7.38;;;2.42;;
65599;SDS011;52272;-29.642;-50.764;2022-09-28T06:55:49;5.07;;;2.55;;
65599;SDS011;52272;-29.642;-50.764;2022-09-28T06:58:19;8.57;;;2.67;;
65599;SDS011;52272;-29.642;-50.764;2022-09-28T07:00:50;6.97;;;3.63;;
65599;SDS011;52272;-29.642;-50.764;2022-09-28T07:03:21;5.30;;;2.80;;
65599;SDS011;52272;-29.642;-50.764;2022-09-28T07:06:14;5.63;;;3.20;;
65599;SDS011;52272;-29.642;-50.764;2022-09-28T07:09:05;6.40;;;3.03;;
65599;SDS011;52272;-29.642;-50.764;2022-09-28T07:12:14;7.53;;;3.80;;
65599;SDS011;52272;-29.642;-50.764;2022-09-28T07:15:07;5.47;;;2.60;;
65599;SDS011;52272;-29.642;-50.764;2022-09-28T07:17:38;6.28;;;3.25;;
65599;SDS011;52272;-29.642;-50.764;2022-09-28T07:20:26;6.80;;;3.75;;
65599;SDS011;52272;-29.642;-50.764;2022-09-28T07:22:59;6.15;;;3.08;;
65599;SDS011;52272;-29.642;-50.764;2022-09-28T07:26:03;4.82;;;2.85;;
65599;SDS011;52272;-29.642;-50.764;2022-09-28T07:29:14;3.63;;;2.28;;
65599;SDS011;52272;-29.642;-50.764;2022-09-28T07:32:18;3.78;;;2.47;;
65599;SDS011;52272;-29.642;-50.764;2022-09-28T07:34:55;5.28;;;2.60;;
65599;SDS011;52272;-29.642;-50.764;2022-09-28T07:37:36;4.88;;;2.55;;
65599;SDS011;52272;-29.642;-50.764;2022-09-28T07:40:07;6.20;;;2.58;;
65599;SDS011;52272;-29.642;-50.764;2022-09-28T07:43:02;4.28;;;3.00;;
65599;SDS011;52272;-29.642;-50.764;2022-09-28T07:45:35;4.03;;;2.63;;
65599;SDS011;52272;-29.642;-50.764;2022-09-28T07:48:06;7.20;;;2.60;;
65599;SDS011;52272;-29.642;-50.764;2022-09-28T07:50:58;5.97;;;2.45;;
65599;SDS011;52272;-29.642;-50.764;2022-09-28T07:53:34;7.18;;;3.05;;
65599;SDS011;52272;-29.642;-50.764;2022-09-28T07:56:45;3.35;;;2.40;;
65599;SDS011;52272;-29.642;-50.764;2022-09-28T08:02:18;7.38;;;2.50;;
65599;SDS011;52272;-29.642;-50.764;2022-09-28T08:04:49;7.22;;;2.85;;
65599;SDS011;52272;-29.642;-50.764;2022-09-28T08:07:20;7.22;;;2.92;;
65599;SDS011;52272;-29.642;-50.764;2022-09-28T08:10:01;6.25;;;3.20;;
65599;SDS011;52272;-29.642;-50.764;2022-09-28T08:12:58;6.32;;;2.70;;
65599;SDS011;52272;-29.642;-50.764;2022-09-28T08:15:53;7.93;;;2.80;;
65599;SDS011;52272;-29.642;-50.764;2022-09-28T08:18:34;9.95;;;3.22;;
65599;SDS011;52272;-29.642;-50.764;2022-09-28T08:21:05;5.40;;;3.10;;
65599;SDS011;52272;-29.642;-50.764;2022-09-28T08:23:54;4.63;;;2.80;;
65599;SDS011;52272;-29.642;-50.764;2022-09-28T08:26:25;5.47;;;2.65;;
65599;SDS011;52272;-29.642;-50.764;2022-09-28T08:28:57;6.13;;;3.40;;
65599;SDS011;52272;-29.642;-50.764;2022-09-28T08:31:54;9.45;;;3.90;;
65599;SDS011;52272;-29.642;-50.764;2022-09-28T08:34:38;7.13;;;3.63;;
65599;SDS011;52272;-29.642;-50.764;2022-09-28T08:37:28;9.77;;;3.75;;
65599;SDS011;52272;-29.642;-50.764;2022-09-28T08:40:27;6.68;;;3.30;;
65599;SDS011;52272;-29.642;-50.764;2022-09-28T08:46:24;5.32;;;3.42;;
65599;SDS011;52272;-29.642;-50.764;2022-09-28T08:49:33;6.43;;;2.67;;
65599;SDS011;52272;-29.642;-50.764;2022-09-28T08:52:27;4.90;;;2.80;;
65599;SDS011;52272;-29.642;-50.764;2022-09-28T08:55:29;5.10;;;3.08;;
65599;SDS011;52272;-29.642;-50.764;2022-09-28T08:58:12;7.15;;;2.92;;
65599;SDS011;52272;-29.642;-50.764;2022-09-28T09:00:50;4.93;;;2.65;;
65599;SDS011;52272;-29.642;-50.764;2022-09-28T09:03:28;5.13;;;2.70;;
65599;SDS011;52272;-29.642;-50.764;2022-09-28T09:09:32;5.03;;;2.55;;
65599;SDS011;52272;-29.642;-50.764;2022-09-28T09:18:19;11.43;;;3.17;;
65599;SDS011;52272;-29.642;-50.764;2022-09-28T09:21:34;5.60;;;2.85;;
65599;SDS011;52272;-29.642;-50.764;2022-09-28T09:47:43;7.47;;;3.10;;
65599;SDS011;52272;-29.642;-50.764;2022-09-28T09:50:25;4.18;;;2.40;;
65599;SDS011;52272;-29.642;-50.764;2022-09-28T09:55:43;4.53;;;2.33;;
65599;SDS011;52272;-29.642;-50.764;2022-09-28T09:58:40;4.60;;;2.40;;
65599;SDS011;52272;-29.642;-50.764;2022-09-28T10:01:39;4.00;;;2.47;;
65599;SDS011;52272;-29.642;-50.764;2022-09-28T10:04:26;3.42;;;2.28;;
65599;SDS011;52272;-29.642;-50.764;2022-09-28T10:07:19;4.88;;;2.40;;
65599;SDS011;52272;-29.642;-50.764;2022-09-28T10:10:00;3.90;;;2.42;;
65599;SDS011;52272;-29.642;-50.764;2022-09-28T10:12:40;4.43;;;2.40;;
65599;SDS011;52272;-29.642;-50.764;2022-09-28T10:15:13;6.00;;;2.47;;
65599;SDS011;52272;-29.642;-50.764;2022-09-28T10:18:02;6.68;;;2.00;;
65599;SDS011;52272;-29.642;-50.764;2022-09-28T10:20:53;8.15;;;3.50;;
65599;SDS011;52272;-29.642;-50.764;2022-09-28T10:23:40;8.57;;;2.83;;
65599;SDS011;52272;-29.642;-50.764;2022-09-28T10:26:12;6.10;;;3.03;;
65599;SDS011;52272;-29.642;-50.764;2022-09-28T10:29:03;7.05;;;2.58;;
65599;SDS011;52272;-29.642;-50.764;2022-09-28T10:31:46;8.13;;;3.10;;
65599;SDS011;52272;-29.642;-50.764;2022-09-28T10:34:35;7.82;;;2.58;;
65599;SDS011;52272;-29.642;-50.764;2022-09-28T10:37:11;6.05;;;2.83;;
65599;SDS011;52272;-29.642;-50.764;2022-09-28T10:40:07;4.13;;;2.70;;
65599;SDS011;52272;-29.642;-50.764;2022-09-28T10:43:00;5.10;;;2.58;;
65599;SDS011;52272;-29.642;-50.764;2022-09-28T10:45:46;8.40;;;2.78;;
65599;SDS011;52272;-29.642;-50.764;2022-09-28T10:48:18;4.97;;;3.55;;
65599;SDS011;52272;-29.642;-50.764;2022-09-28T10:50:58;6.65;;;2.70;;
65599;SDS011;52272;-29.642;-50.764;2022-09-28T10:53:34;10.40;;;3.40;;
65599;SDS011;52272;-29.642;-50.764;2022-09-28T10:56:20;7.72;;;3.30;;
65599;SDS011;52272;-29.642;-50.764;2022-09-28T10:59:06;5.75;;;2.67;;
65599;SDS011;52272;-29.642;-50.764;2022-09-28T11:01:53;8.15;;;2.63;;
65599;SDS011;52272;-29.642;-50.764;2022-09-28T11:04:42;7.65;;;2.35;;
65599;SDS011;52272;-29.642;-50.764;2022-09-28T11:07:26;8.63;;;3.22;;
65599;SDS011;52272;-29.642;-50.764;2022-09-28T11:10:01;7.78;;;3.28;;
65599;SDS011;52272;-29.642;-50.764;2022-09-28T11:12:41;8.93;;;3.20;;
65599;SDS011;52272;-29.642;-50.764;2022-09-28T11:15:34;12.02;;;3.00;;
65599;SDS011;52272;-29.642;-50.764;2022-09-28T11:18:28;11.65;;;3.50;;
65599;SDS011;52272;-29.642;-50.764;2022-09-28T11:21:12;8.32;;;3.90;;
65599;SDS011;52272;-29.642;-50.764;2022-09-28T11:23:59;12.25;;;3.55;;
65599;SDS011;52272;-29.642;-50.764;2022-09-28T11:27:00;13.93;;;3.10;;
65599;SDS011;52272;-29.642;-50.764;2022-09-28T11:35:17;11.98;;;3.28;;
65599;SDS011;52272;-29.642;-50.764;2022-09-28T11:38:17;18.23;;;2.85;;
65599;SDS011;52272;-29.642;-50.764;2022-09-28T11:41:35;12.23;;;2.83;;
65599;SDS011;52272;-29.642;-50.764;2022-09-28T11:53:15;10.57;;;2.95;;
65599;SDS011;52272;-29.642;-50.764;2022-09-28T11:55:56;8.27;;;2.40;;
65599;SDS011;52272;-29.642;-50.764;2022-09-28T11:58:58;13.27;;;2.80;;
65599;SDS011;52272;-29.642;-50.764;2022-09-28T12:01:56;11.57;;;3.00;;
65599;SDS011;52272;-29.642;-50.764;2022-09-28T12:04:53;10.90;;;2.95;;
65599;SDS011;52272;-29.642;-50.764;2022-09-28T12:07:37;9.48;;;2.60;;
65599;SDS011;52272;-29.642;-50.764;2022-09-28T12:10:38;10.32;;;2.60;;
65599;SDS011;52272;-29.642;-50.764;2022-09-28T12:13:39;7.85;;;1.83;;
65599;SDS011;52272;-29.642;-50.764;2022-09-28T12:22:37;12.70;;;2.67;;
65599;SDS011;52272;-29.642;-50.764;2022-09-28T12:25:14;15.25;;;2.72;;
65599;SDS011;52272;-29.642;-50.764;2022-09-28T12:30:34;7.82;;;1.95;;
65599;SDS011;52272;-29.642;-50.764;2022-09-28T12:33:12;8.65;;;2.10;;
65599;SDS011;52272;-29.642;-50.764;2022-09-28T12:35:57;7.85;;;1.92;;
65599;SDS011;52272;-29.642;-50.764;2022-09-28T13:02:21;8.57;;;2.53;;
65599;SDS011;52272;-29.642;-50.764;2022-09-28T13:24:34;8.27;;;1.95;;
65599;SDS011;52272;-29.642;-50.764;2022-09-28T13:27:14;8.55;;;1.80;;
65599;SDS011;52272;-29.642;-50.764;2022-09-28T13:29:48;8.20;;;1.65;;
65599;SDS011;52272;-29.642;-50.764;2022-09-28T13:32:19;5.85;;;1.70;;
65599;SDS011;52272;-29.642;-50.764;2022-09-28T13:34:52;6.47;;;1.55;;
65599;SDS011;52272;-29.642;-50.764;2022-09-28T13:37:24;11.13;;;2.45;;
65599;SDS011;52272;-29.642;-50.764;2022-09-28T13:39:55;6.05;;;1.58;;
65599;SDS011;52272;-29.642;-50.764;2022-09-28T13:42:37;5.53;;;1.60;;
65599;SDS011;52272;-29.642;-50.764;2022-09-28T13:50:36;6.13;;;1.88;;
65599;SDS011;52272;-29.642;-50.764;2022-09-28T13:53:31;6.53;;;1.70;;
65599;SDS011;52272;-29.642;-50.764;2022-09-28T13:59:00;7.65;;;1.88;;
65599;SDS011;52272;-29.642;-50.764;2022-09-28T14:02:03;4.38;;;1.30;;
65599;SDS011;52272;-29.642;-50.764;2022-09-28T14:04:59;8.10;;;1.80;;
65599;SDS011;52272;-29.642;-50.764;2022-09-28T14:10:21;6.88;;;1.90;;
65599;SDS011;52272;-29.642;-50.764;2022-09-28T14:12:54;9.05;;;1.70;;
65599;SDS011;52272;-29.642;-50.764;2022-09-28T14:20:49;6.80;;;1.33;;
65599;SDS011;52272;-29.642;-50.764;2022-09-28T14:23:45;5.28;;;1.70;;
65599;SDS011;52272;-29.642;-50.764;2022-09-28T14:29:37;9.48;;;1.80;;
65599;SDS011;52272;-29.642;-50.764;2022-09-28T14:34:43;9.60;;;1.80;;
65599;SDS011;52272;-29.642;-50.764;2022-09-28T14:37:26;10.13;;;1.88;;
65599;SDS011;52272;-29.642;-50.764;2022-09-28T14:59:22;7.15;;;1.60;;
65599;SDS011;52272;-29.642;-50.764;2022-09-28T15:02:06;10.32;;;1.80;;
65599;SDS011;52272;-29.642;-50.764;2022-09-28T15:04:51;11.38;;;1.90;;
65599;SDS011;52272;-29.642;-50.764;2022-09-28T15:07:25;5.72;;;1.63;;
65599;SDS011;52272;-29.642;-50.764;2022-09-28T15:10:01;6.20;;;1.52;;
65599;SDS011;52272;-29.642;-50.764;2022-09-28T15:12:31;8.50;;;1.70;;
65599;SDS011;52272;-29.642;-50.764;2022-09-28T15:15:03;4.68;;;1.50;;
65599;SDS011;52272;-29.642;-50.764;2022-09-28T15:17:46;7.78;;;1.70;;
65599;SDS011;52272;-29.642;-50.764;2022-09-28T15:20:37;10.52;;;1.88;;
65599;SDS011;52272;-29.642;-50.764;2022-09-28T15:23:56;8.52;;;1.70;;
65599;SDS011;52272;-29.642;-50.764;2022-09-28T15:26:24;12.18;;;2.17;;
65599;SDS011;52272;-29.642;-50.764;2022-09-28T15:29:00;11.02;;;1.77;;
65599;SDS011;52272;-29.642;-50.764;2022-09-28T15:31:36;8.50;;;1.58;;
65599;SDS011;52272;-29.642;-50.764;2022-09-28T15:34:10;7.72;;;1.67;;
65599;SDS011;52272;-29.642;-50.764;2022-09-28T15:37:18;6.40;;;1.75;;
65599;SDS011;52272;-29.642;-50.764;2022-09-28T15:39:57;6.68;;;1.38;;
65599;SDS011;52272;-29.642;-50.764;2022-09-28T15:42:33;8.18;;;1.70;;
65599;SDS011;52272;-29.642;-50.764;2022-09-28T15:48:25;6.85;;;1.73;;
65599;SDS011;52272;-29.642;-50.764;2022-09-28T15:51:08;4.75;;;1.38;;
65599;SDS011;52272;-29.642;-50.764;2022-09-28T15:53:41;10.65;;;1.80;;
65599;SDS011;52272;-29.642;-50.764;2022-09-28T15:56:16;12.13;;;2.13;;
65599;SDS011;52272;-29.642;-50.764;2022-09-28T16:01:44;6.45;;;1.77;;
65599;SDS011;52272;-29.642;-50.764;2022-09-28T16:04:33;6.38;;;1.42;;
65599;SDS011;52272;-29.642;-50.764;2022-09-28T16:12:41;5.40;;;1.38;;
65599;SDS011;52272;-29.642;-50.764;2022-09-28T16:23:56;7.75;;;1.50;;
65599;SDS011;52272;-29.642;-50.764;2022-09-28T16:26:34;6.20;;;1.58;;
65599;SDS011;52272;-29.642;-50.764;2022-09-28T16:31:37;5.80;;;1.33;;
65599;SDS011;52272;-29.642;-50.764;2022-09-28T16:34:18;5.05;;;1.88;;
65599;SDS011;52272;-29.642;-50.764;2022-09-28T16:36:52;6.10;;;1.33;;
65599;SDS011;52272;-29.642;-50.764;2022-09-28T16:39:23;5.90;;;1.45;;
65599;SDS011;52272;-29.642;-50.764;2022-09-28T16:41:54;3.88;;;1.33;;
65599;SDS011;52272;-29.642;-50.764;2022-09-28T16:47:05;7.40;;;1.73;;
65599;SDS011;52272;-29.642;-50.764;2022-09-28T16:49:36;7.63;;;1.75;;
65599;SDS011;52272;-29.642;-50.764;2022-09-28T16:52:10;7.07;;;1.77;;
65599;SDS011;52272;-29.642;-50.764;2022-09-28T16:54:44;5.95;;;1.83;;
65599;SDS011;52272;-29.642;-50.764;2022-09-28T16:57:53;8.40;;;1.75;;
65599;SDS011;52272;-29.642;-50.764;2022-09-28T17:00:30;6.38;;;1.50;;
65599;SDS011;52272;-29.642;-50.764;2022-09-28T17:03:04;7.22;;;2.00;;
65599;SDS011;52272;-29.642;-50.764;2022-09-28T17:05:41;4.35;;;1.67;;
65599;SDS011;52272;-29.642;-50.764;2022-09-28T17:08:14;9.30;;;1.77;;
65599;SDS011;52272;-29.642;-50.764;2022-09-28T17:10:51;9.80;;;1.88;;
65599;SDS011;52272;-29.642;-50.764;2022-09-28T17:13:44;11.30;;;1.75;;
65599;SDS011;52272;-29.642;-50.764;2022-09-28T17:16:16;7.13;;;1.55;;
65599;SDS011;52272;-29.642;-50.764;2022-09-28T17:19:17;10.82;;;2.00;;
65599;SDS011;52272;-29.642;-50.764;2022-09-28T17:21:52;9.57;;;1.80;;
65599;SDS011;52272;-29.642;-50.764;2022-09-28T17:24:30;6.80;;;1.58;;
65599;SDS011;52272;-29.642;-50.764;2022-09-28T17:27:00;4.63;;;1.50;;
65599;SDS011;52272;-29.642;-50.764;2022-09-28T17:29:32;6.85;;;1.80;;
65599;SDS011;52272;-29.642;-50.764;2022-09-28T17:32:04;3.83;;;1.67;;
65599;SDS011;52272;-29.642;-50.764;2022-09-28T17:34:41;6.20;;;1.35;;
65599;SDS011;52272;-29.642;-50.764;2022-09-28T17:37:22;4.43;;;1.20;;
65599;SDS011;52272;-29.642;-50.764;2022-09-28T17:39:54;7.53;;;1.92;;
65599;SDS011;52272;-29.642;-50.764;2022-09-28T17:42:24;5.38;;;1.67;;
65599;SDS011;52272;-29.642;-50.764;2022-09-28T17:44:56;6.90;;;1.30;;
65599;SDS011;52272;-29.642;-50.764;2022-09-28T17:47:26;8.32;;;1.60;;
65599;SDS011;52272;-29.642;-50.764;2022-09-28T17:50:04;10.57;;;1.50;;
65599;SDS011;52272;-29.642;-50.764;2022-09-28T17:52:46;6.18;;;1.25;;
65599;SDS011;52272;-29.642;-50.764;2022-09-28T17:55:27;2.92;;;1.13;;
65599;SDS011;52272;-29.642;-50.764;2022-09-28T17:58:22;6.47;;;1.33;;
65599;SDS011;52272;-29.642;-50.764;2022-09-28T18:00:53;7.97;;;1.17;;
65599;SDS011;52272;-29.642;-50.764;2022-09-28T18:03:23;4.93;;;1.20;;
65599;SDS011;52272;-29.642;-50.764;2022-09-28T18:06:02;6.55;;;1.30;;
65599;SDS011;52272;-29.642;-50.764;2022-09-28T18:08:35;6.90;;;1.38;;
65599;SDS011;52272;-29.642;-50.764;2022-09-28T18:11:06;4.05;;;1.15;;
65599;SDS011;52272;-29.642;-50.764;2022-09-28T18:13:37;7.03;;;1.73;;
65599;SDS011;52272;-29.642;-50.764;2022-09-28T18:16:09;4.70;;;1.45;;
65599;SDS011;52272;-29.642;-50.764;2022-09-28T18:18:39;5.25;;;1.30;;
65599;SDS011;52272;-29.642;-50.764;2022-09-28T18:21:10;4.25;;;1.30;;
65599;SDS011;52272;-29.642;-50.764;2022-09-28T18:23:41;3.45;;;1.10;;
65599;SDS011;52272;-29.642;-50.764;2022-09-28T18:26:12;6.93;;;0.93;;
65599;SDS011;52272;-29.642;-50.764;2022-09-28T18:28:43;3.38;;;1.27;;
65599;SDS011;52272;-29.642;-50.764;2022-09-28T18:31:15;3.28;;;1.45;;
65599;SDS011;52272;-29.642;-50.764;2022-09-28T18:33:46;5.47;;;1.08;;
65599;SDS011;52272;-29.642;-50.764;2022-09-28T18:36:18;4.35;;;1.67;;
65599;SDS011;52272;-29.642;-50.764;2022-09-28T18:38:48;6.05;;;1.33;;
65599;SDS011;52272;-29.642;-50.764;2022-09-28T18:41:19;6.30;;;1.08;;
65599;SDS011;52272;-29.642;-50.764;2022-09-28T18:43:49;4.78;;;1.70;;
65599;SDS011;52272;-29.642;-50.764;2022-09-28T18:46:21;7.47;;;1.80;;
65599;SDS011;52272;-29.642;-50.764;2022-09-28T18:48:54;2.95;;;1.00;;
65599;SDS011;52272;-29.642;-50.764;2022-09-28T18:51:26;5.18;;;1.45;;
65599;SDS011;52272;-29.642;-50.764;2022-09-28T18:53:56;11.15;;;1.67;;